Healdsburg, CA (95448)

8:18 PM PDT on September 02, 2015 (GMT -0700)
Healdsburg | | Change Station
CLOSE
Current Station
Personal Weather Station
Location: Healdsburg, CA
Elevation: 172 ft
Nearby Weather Stations

Elev 172 ft 38.63 °N, 122.87 °W | Updated 8 seconds ago

Clear
Clear
68.2 °F
Feels Like 68.2 °F
N
1.0
Wind Variable Wind from West
Gusts 4.0 mph

Today
High -- | Low -- °F
--% Chance of Precip.
Yesterday
High -- | Low -- °F
Precip. -- in
6:41 AM 7:40 PM
Waning Gibbous, 74% visible
Pressure 29.82 in
Visibility 10.0 miles
Clouds Few 2000 ft
Dew Point 58 °F
Humidity 69%
Rainfall 0.00 in
Snow Depth Not available.
UV 0 out of 12
Pollen 7.10 out of 12
Air Quality Not available.
Flu Activity Not available.
METAR KSTS 030253Z 14003KT 10SM FEW020 19/13 A2983 RMK AO2 SLP096 T01890133 55001
Pressure 29.82 in
Visibility 10.0 miles
Clouds Few 2000 ft
Dew Point 58 °F
Humidity 69%
Rainfall 0.00 in
Snow Depth Not available.
UV 0 out of 12
Pollen 7.10 out of 12
Air Quality Not available.
Flu Activity Not available.
METAR KSTS 030253Z 14003KT 10SM FEW020 19/13 A2983 RMK AO2 SLP096 T01890133 55001

10-Day Weather Forecast

×

Almanac

Astronomy

Sep. 02, 2015 Rise Set
Actual Time
Civil Twilight
Nautical Twilight
Astronomical Twilight
Moon
Length of Visible Light
Length of Day
Tomorrow will be .
, % of the Moon is Illuminated

Today's Extremes

State Highs State Lows

Community

WunderPhotos

Upload Photos

1,851,892 photos uploaded!

WunderBlogs® & News

Nearby

Air Quality

  Air Quality AQ Index Pollutant
Not available.

Snow Depth

Station Depth Elevation

Earthquake Activity

City Distance Mag. Time & Date
Minimum magnitude displayed is 2.5.

Coastal Water Temperatures

Place Temperature

Stations

Nearby Weather Stations

Station Location Temp. Windchill Dew Point Humidity Wind Precip. Elev Updated Type